Durhamville, New York
Current Conditions -  °F | °C
As of 12:53 AM on Wednesday 26 Nov 2014 (Local Time) from KRME Reporting Station
Overcast Overcast  
Wind Chill: 30°   Ceiling: 4500
Heat Index: 36°   Visibility: 10mi
Dew Point: 28°   Wind: 7mph
Humidity: 73%   Direction: 270°W
Pressure: 30.22"   Gusts: NA
Location:  43.12°N, 75.67°W
Report Text: KRME 260553Z AUTO 27006KT 10SM OVC045 02/M02 A3022 RMK AO2 SLP235 T00221022 10050 20022 51017
Loading
Personal Weather Stations






























Interactive Weather Map New forecast layout! Learn more

10-Day Weather Forecast

Advertisements
Track Severe Weather on mobile